createdAt,value
2023-04-15T00:02:00.246Z,19.02
2023-04-15T00:04:28.478Z,14.45
2023-04-15T00:06:56.016Z,18.17
2023-04-15T00:09:24.037Z,16.63
2023-04-15T00:11:51.562Z,15.05
2023-04-15T00:14:19.235Z,18.85
2023-04-15T00:16:46.993Z,17.65
2023-04-15T00:19:14.766Z,14.35
2023-04-15T00:21:42.363Z,15.60
2023-04-15T00:24:09.939Z,16.48
2023-04-15T00:26:37.540Z,18.58
2023-04-15T00:29:05.320Z,18.17
2023-04-15T00:31:32.989Z,17.15
2023-04-15T00:34:02.051Z,16.75
2023-04-15T00:36:31.814Z,14.77
2023-04-15T00:38:59.703Z,14.88
2023-04-15T00:41:27.249Z,18.38
2023-04-15T00:43:54.793Z,18.00
2023-04-15T00:46:22.998Z,15.65
2023-04-15T00:48:51.295Z,14.00
2023-04-15T00:51:18.661Z,12.27
2023-04-15T00:53:46.276Z,10.32
2023-04-15T00:56:14.402Z,10.80
2023-04-15T00:58:42.096Z,9.63
2023-04-15T01:01:10.170Z,9.65
2023-04-15T01:03:37.923Z,11.60
2023-04-15T01:06:05.771Z,14.20
2023-04-15T01:08:33.304Z,10.55
2023-04-15T01:11:03.555Z,8.98
2023-04-15T01:13:31.267Z,8.48
2023-04-15T01:15:58.999Z,7.28
2023-04-15T01:18:27.280Z,9.32
2023-04-15T01:20:54.796Z,8.25
2023-04-15T01:23:25.057Z,7.72
2023-04-15T01:25:54.381Z,10.23
2023-04-15T01:28:22.131Z,8.20
2023-04-15T01:30:49.973Z,8.88
2023-04-15T01:33:17.640Z,7.60
2023-04-15T01:36:08.478Z,13.25
2023-04-15T01:38:36.940Z,8.88
2023-04-15T01:41:04.864Z,9.40
2023-04-15T01:43:36.373Z,12.10
2023-04-15T01:46:06.130Z,9.48
2023-04-15T01:48:35.350Z,9.73
2023-04-15T01:51:05.838Z,9.40
2023-04-15T01:53:34.918Z,10.43
2023-04-15T01:56:04.869Z,14.43
2023-04-15T01:58:33.820Z,10.75
2023-04-15T02:01:04.060Z,10.95
2023-04-15T02:03:34.050Z,14.20
2023-04-15T02:06:04.530Z,10.48
2023-04-15T02:08:33.572Z,9.93
2023-04-15T02:11:02.394Z,13.85
2023-04-15T02:13:31.402Z,11.98
2023-04-15T02:16:00.404Z,8.82
2023-04-15T02:18:29.266Z,10.35
2023-04-15T02:20:58.932Z,9.40
2023-04-15T02:23:28.032Z,9.73
2023-04-15T02:25:56.934Z,10.88
2023-04-15T02:28:25.878Z,12.23
2023-04-15T02:30:57.164Z,10.75
2023-04-15T02:33:26.137Z,10.00
2023-04-15T02:35:55.022Z,9.85
2023-04-15T02:38:23.916Z,11.68
2023-04-15T02:40:52.820Z,9.45
2023-04-15T02:43:21.776Z,12.88
2023-04-15T02:45:52.318Z,13.15
2023-04-15T02:48:22.447Z,10.23
2023-04-15T02:50:52.022Z,12.85
2023-04-15T02:53:21.355Z,10.95
2023-04-15T02:55:50.175Z,12.60
2023-04-15T02:58:19.044Z,12.43
2023-04-15T03:00:47.887Z,9.68
2023-04-15T03:03:16.811Z,11.63
2023-04-15T03:05:45.773Z,11.07
2023-04-15T03:08:15.041Z,7.85
2023-04-15T03:10:43.756Z,9.10
2023-04-15T03:13:12.630Z,8.70
2023-04-15T03:15:42.057Z,9.63
2023-04-15T03:18:10.934Z,8.52
2023-04-15T03:20:39.735Z,6.70
2023-04-15T03:23:08.902Z,8.75
2023-04-15T03:25:37.758Z,7.32
2023-04-15T03:28:08.915Z,9.23
2023-04-15T03:30:37.783Z,8.10
2023-04-15T03:33:06.982Z,8.20
2023-04-15T03:35:35.877Z,9.55
2023-04-15T03:38:04.796Z,8.50
2023-04-15T03:40:33.632Z,9.27
2023-04-15T03:43:02.586Z,9.07
2023-04-15T03:45:31.555Z,9.82
2023-04-15T03:48:15.609Z,8.65
2023-04-15T03:50:46.288Z,8.52
2023-04-15T03:53:16.015Z,9.38
2023-04-15T03:55:44.962Z,8.30
2023-04-15T03:58:13.861Z,7.45
2023-04-15T04:00:42.653Z,10.60
2023-04-15T04:03:11.914Z,9.25
2023-04-15T04:05:41.614Z,9.40
2023-04-15T04:08:13.844Z,8.88
2023-04-15T04:10:43.026Z,9.13
2023-04-15T04:13:11.834Z,8.27
2023-04-15T04:15:40.859Z,8.10
2023-04-15T04:18:10.025Z,8.75
2023-04-15T04:20:38.921Z,8.95
2023-04-15T04:23:07.754Z,7.15
2023-04-15T04:25:36.569Z,8.63
2023-04-15T04:28:05.550Z,7.78
2023-04-15T04:30:36.057Z,9.10
2023-04-15T04:35:35.027Z,6.97
2023-04-15T04:38:04.493Z,8.65
2023-04-15T04:40:33.327Z,8.00
2023-04-15T04:43:02.316Z,8.27
2023-04-15T04:45:31.391Z,10.60
2023-04-15T04:48:00.566Z,8.23
2023-04-15T04:50:29.570Z,9.52
2023-04-15T04:52:58.301Z,8.68
2023-04-15T04:55:27.319Z,7.93
2023-04-15T04:57:56.270Z,10.27
2023-04-15T05:00:25.449Z,10.95
2023-04-15T05:02:54.469Z,10.05
2023-04-15T05:05:23.378Z,9.98
2023-04-15T05:07:52.089Z,16.20
2023-04-15T05:10:21.150Z,12.85
2023-04-15T05:12:50.488Z,10.10
2023-04-15T05:15:19.259Z,9.80
2023-04-15T05:17:48.064Z,10.77
2023-04-15T05:20:17.152Z,10.98
2023-04-15T05:22:45.882Z,9.55
2023-04-15T05:25:14.664Z,9.73
2023-04-15T05:27:43.407Z,9.68
2023-04-15T05:30:13.538Z,11.98
2023-04-15T05:32:42.571Z,12.38
2023-04-15T05:35:11.642Z,10.55
2023-04-15T05:37:40.626Z,8.90
2023-04-15T05:40:10.702Z,9.48
2023-04-15T05:42:39.439Z,10.20
2023-04-15T05:45:09.367Z,14.02
2023-04-15T05:47:38.353Z,10.00
2023-04-15T05:50:07.360Z,9.98
2023-04-15T05:52:36.074Z,9.75
2023-04-15T05:55:05.043Z,8.73
2023-04-15T05:57:34.016Z,10.30
2023-04-15T06:00:03.708Z,9.13
2023-04-15T06:02:38.657Z,8.98
2023-04-15T06:05:11.893Z,9.68
2023-04-15T06:07:41.697Z,14.73
2023-04-15T06:10:11.011Z,10.98
2023-04-15T06:12:39.827Z,13.48
2023-04-15T06:15:10.379Z,11.57
2023-04-15T06:17:39.168Z,12.57
2023-04-15T06:20:08.672Z,13.80
2023-04-15T06:22:41.760Z,15.43
2023-04-15T06:25:10.952Z,13.93
2023-04-15T06:27:39.741Z,12.63
2023-04-15T06:30:09.085Z,12.98
2023-04-15T06:32:38.076Z,17.38
2023-04-15T06:35:07.083Z,17.05
2023-04-15T06:37:36.449Z,14.23
2023-04-15T06:40:06.335Z,17.75
2023-04-15T06:42:36.782Z,15.27
2023-04-15T06:45:06.731Z,15.50
2023-04-15T06:47:35.548Z,17.10
2023-04-15T06:50:04.784Z,20.33
2023-04-15T06:52:33.454Z,18.65
2023-04-15T06:55:02.730Z,19.75
2023-04-15T06:57:33.742Z,20.60
2023-04-15T07:00:05.783Z,18.05
2023-04-15T07:02:34.622Z,19.15
2023-04-15T07:05:04.609Z,17.98
2023-04-15T07:07:33.402Z,18.13
2023-04-15T07:10:03.380Z,17.10
2023-04-15T07:12:32.315Z,17.93
2023-04-15T07:15:01.205Z,18.38
2023-04-15T07:17:30.076Z,14.35
2023-04-15T07:19:59.418Z,16.15
2023-04-15T07:22:28.108Z,15.55
2023-04-15T07:24:56.746Z,15.13
2023-04-15T07:27:25.998Z,13.77
2023-04-15T07:29:55.513Z,12.55
2023-04-15T07:32:24.234Z,13.38
2023-04-15T07:34:53.528Z,12.80
2023-04-15T07:37:24.726Z,13.35
2023-04-15T07:39:53.519Z,13.18
2023-04-15T07:42:22.503Z,14.15
2023-04-15T07:44:52.080Z,12.40
2023-04-15T07:47:21.317Z,13.68
2023-04-15T07:49:51.610Z,15.05
2023-04-15T07:52:20.498Z,15.77
2023-04-15T07:54:49.382Z,14.05
2023-04-15T07:57:18.400Z,15.68
2023-04-15T07:59:47.305Z,13.77
2023-04-15T08:02:16.305Z,11.93
2023-04-15T08:04:45.520Z,14.43
2023-04-15T08:07:14.745Z,11.32
2023-04-15T08:09:43.479Z,12.20
2023-04-15T08:12:13.434Z,9.93
2023-04-15T08:14:42.358Z,13.02
2023-04-15T08:17:11.556Z,10.70
2023-04-15T08:19:40.866Z,11.00
2023-04-15T08:22:17.300Z,11.85
2023-04-15T08:24:47.378Z,9.32
2023-04-15T08:27:16.112Z,22.23
2023-04-15T08:29:45.725Z,9.85
2023-04-15T08:32:14.987Z,10.98
2023-04-15T08:34:43.865Z,12.77
2023-04-15T08:37:12.853Z,8.18
2023-04-15T08:39:41.793Z,9.90
2023-04-15T08:42:17.881Z,9.52
2023-04-15T08:44:48.313Z,14.50
2023-04-15T08:47:22.544Z,10.18
2023-04-15T08:49:55.026Z,14.90
2023-04-15T08:52:26.423Z,9.38
2023-04-15T08:54:58.826Z,10.63
2023-04-15T08:57:29.077Z,10.40
2023-04-15T08:59:58.273Z,12.47
2023-04-15T09:02:27.588Z,9.68
2023-04-15T09:04:56.798Z,9.00
2023-04-15T09:07:25.668Z,15.10
2023-04-15T09:09:54.366Z,13.27
2023-04-15T09:12:23.065Z,10.93
2023-04-15T09:14:52.491Z,8.68
2023-04-15T09:17:21.846Z,13.35
2023-04-15T09:20:07.385Z,9.75
2023-04-15T09:22:37.948Z,15.85
2023-04-15T09:25:28.279Z,10.80
2023-04-15T09:27:59.039Z,10.40
2023-04-15T09:30:28.956Z,12.73
2023-04-15T09:33:00.146Z,12.13
2023-04-15T09:35:29.192Z,11.38
2023-04-15T09:38:15.835Z,12.50
2023-04-15T09:40:44.496Z,11.40
2023-04-15T09:43:13.664Z,12.18
2023-04-15T09:45:49.303Z,12.90
2023-04-15T09:48:22.894Z,13.05
2023-04-15T09:50:53.566Z,12.38
2023-04-15T09:53:23.842Z,10.10
2023-04-15T09:55:57.638Z,10.98
2023-04-15T09:58:28.244Z,11.18
2023-04-15T10:00:58.540Z,10.15
2023-04-15T10:03:30.027Z,11.65
2023-04-15T10:06:00.672Z,13.18
2023-04-15T10:08:32.863Z,12.50
2023-04-15T10:11:02.958Z,12.95
2023-04-15T10:13:37.286Z,11.00
2023-04-15T10:16:11.273Z,12.13
2023-04-15T10:18:44.495Z,10.75
2023-04-15T10:21:16.414Z,13.18
2023-04-15T10:23:48.784Z,12.98
2023-04-15T10:26:17.869Z,8.55
2023-04-15T10:28:49.696Z,12.90
2023-04-15T10:31:20.016Z,9.48
2023-04-15T10:33:49.772Z,11.60
2023-04-15T10:36:19.873Z,14.75
2023-04-15T10:38:48.633Z,7.93
2023-04-15T10:41:29.836Z,9.32
2023-04-15T10:44:05.667Z,9.55
2023-04-15T10:46:42.393Z,8.77
2023-04-15T10:49:12.495Z,7.93
2023-04-15T10:51:46.363Z,10.57
2023-04-15T10:54:34.076Z,11.07
2023-04-15T10:57:22.375Z,9.60
2023-04-15T11:00:19.089Z,8.45
2023-04-15T11:02:53.827Z,13.13
2023-04-15T11:05:44.104Z,9.20
2023-04-15T11:08:13.604Z,9.20
2023-04-15T11:10:42.228Z,10.63
2023-04-15T11:13:11.013Z,13.02
2023-04-15T11:15:41.945Z,13.70
2023-04-15T11:18:17.877Z,10.25
2023-04-15T11:20:57.519Z,11.10
2023-04-15T11:23:34.218Z,7.90
2023-04-15T11:26:09.321Z,13.40
2023-04-15T11:28:41.158Z,14.02
2023-04-15T11:31:12.754Z,8.90
2023-04-15T11:34:01.591Z,10.05
2023-04-15T11:36:32.001Z,14.57
2023-04-15T11:39:01.136Z,8.20
2023-04-15T11:41:29.928Z,12.18
2023-04-15T11:43:58.680Z,8.70
2023-04-15T11:46:31.863Z,8.15
2023-04-15T11:49:00.971Z,9.63
2023-04-15T11:51:33.176Z,5.88
2023-04-15T11:56:28.312Z,9.68
2023-04-15T11:58:58.372Z,8.60
2023-04-15T12:01:43.675Z,9.33
2023-04-15T12:04:12.809Z,11.88
2023-04-15T12:06:41.307Z,7.50
2023-04-15T12:09:12.458Z,7.57
2023-04-15T12:11:47.081Z,14.68
2023-04-15T12:14:29.342Z,8.63
2023-04-15T12:17:02.064Z,9.43
2023-04-15T12:19:37.961Z,9.32
2023-04-15T12:22:10.182Z,10.10
2023-04-15T12:24:38.947Z,11.48
2023-04-15T12:27:13.028Z,10.45
2023-04-15T12:29:43.178Z,11.73
2023-04-15T12:32:21.295Z,6.05
2023-04-15T12:34:54.532Z,8.68
2023-04-15T12:37:22.160Z,10.40
2023-04-15T12:39:51.043Z,8.75
2023-04-15T12:42:18.887Z,8.70
2023-04-15T12:44:46.966Z,7.38
2023-04-15T12:47:14.621Z,8.32
2023-04-15T12:49:42.283Z,6.85
2023-04-15T12:52:09.799Z,9.18
2023-04-15T12:54:39.382Z,10.88
2023-04-15T12:57:07.522Z,7.70
2023-04-15T12:59:36.120Z,8.73
2023-04-15T13:02:04.046Z,9.05
2023-04-15T13:04:32.161Z,9.55
2023-04-15T13:07:00.009Z,12.50
2023-04-15T13:09:27.546Z,7.18
2023-04-15T13:11:56.117Z,9.65
2023-04-15T13:14:23.798Z,9.52
2023-04-15T13:16:51.318Z,6.72
2023-04-15T13:19:18.719Z,12.52
2023-04-15T13:21:46.396Z,11.38
2023-04-15T13:24:13.925Z,7.93
2023-04-15T13:26:41.972Z,7.30
2023-04-15T13:29:09.864Z,7.30
2023-04-15T13:31:37.571Z,10.20
2023-04-15T13:34:05.587Z,7.75
2023-04-15T13:36:33.393Z,8.50
2023-04-15T13:39:01.079Z,8.27
2023-04-15T13:41:28.653Z,8.80
2023-04-15T13:43:57.426Z,8.68
2023-04-15T13:46:26.150Z,6.35
2023-04-15T13:48:53.906Z,11.05
2023-04-15T13:51:21.385Z,9.32
2023-04-15T13:53:48.933Z,11.70
2023-04-15T13:56:16.630Z,11.85
2023-04-15T13:58:44.228Z,9.20
2023-04-15T14:01:11.858Z,10.25
2023-04-15T14:03:39.513Z,7.63
2023-04-15T14:06:07.290Z,9.00
2023-04-15T14:08:34.947Z,10.32
2023-04-15T14:11:02.381Z,10.95
2023-04-15T14:13:30.124Z,8.02
2023-04-15T14:15:57.744Z,7.03
2023-04-15T14:18:25.527Z,7.85
2023-04-15T14:20:52.956Z,8.95
2023-04-15T14:23:20.387Z,7.97
2023-04-15T14:25:48.592Z,9.02
2023-04-15T14:28:16.242Z,10.02
2023-04-15T14:30:44.849Z,6.50
2023-04-15T14:33:12.747Z,7.22
2023-04-15T14:35:40.362Z,9.77
2023-04-15T14:38:10.999Z,7.25
2023-04-15T14:40:39.116Z,8.73
2023-04-15T14:43:06.951Z,7.80
2023-04-15T14:45:35.335Z,9.18
2023-04-15T14:48:03.016Z,9.48
2023-04-15T14:50:30.782Z,8.75
2023-04-15T14:52:59.150Z,9.07
2023-04-15T14:55:26.765Z,7.50
2023-04-15T14:57:54.286Z,7.05
2023-04-15T15:00:21.897Z,10.25
2023-04-15T15:02:50.004Z,9.35
2023-04-15T15:05:17.676Z,12.27
2023-04-15T15:07:45.907Z,9.70
2023-04-15T15:10:13.619Z,11.00
2023-04-15T15:12:41.147Z,8.23
2023-04-15T15:15:25.016Z,8.27
2023-04-15T15:17:57.085Z,9.18
2023-04-15T15:20:25.428Z,10.32
2023-04-15T15:22:53.078Z,12.18
2023-04-15T15:25:20.715Z,10.52
2023-04-15T15:27:48.748Z,8.48
2023-04-15T15:30:16.330Z,10.10
2023-04-15T15:32:44.520Z,11.63
2023-04-15T15:35:12.743Z,8.43
2023-04-15T15:37:41.836Z,11.93
2023-04-15T15:40:09.610Z,8.88
2023-04-15T15:42:37.060Z,11.98
2023-04-15T15:45:05.050Z,13.45
2023-04-15T15:47:33.305Z,11.73
2023-04-15T15:50:03.041Z,10.60
2023-04-15T15:52:32.220Z,13.75
2023-04-15T15:54:59.709Z,11.50
2023-04-15T15:57:27.099Z,10.07
2023-04-15T16:00:01.989Z,16.55
2023-04-15T16:03:04.437Z,13.30
2023-04-15T16:05:25.576Z,13.32
2023-04-15T16:07:52.996Z,10.43
2023-04-15T16:10:20.533Z,11.93
2023-04-15T16:12:48.014Z,12.38
2023-04-15T16:15:15.696Z,13.85
2023-04-15T16:17:45.471Z,9.95
2023-04-15T16:20:12.962Z,10.18
2023-04-15T16:22:40.700Z,12.50
2023-04-15T16:25:08.567Z,8.30
2023-04-15T16:27:54.122Z,9.25
2023-04-15T16:30:24.125Z,12.38
2023-04-15T16:32:51.913Z,8.85
2023-04-15T16:35:19.959Z,10.10
2023-04-15T16:37:47.381Z,11.00
2023-04-15T16:40:15.154Z,7.70
2023-04-15T16:42:43.760Z,9.38
2023-04-15T16:45:11.502Z,6.57
2023-04-15T16:47:39.085Z,11.73
2023-04-15T16:50:07.345Z,8.48
2023-04-15T16:52:35.278Z,5.57
2023-04-15T16:55:03.346Z,22.27
2023-04-15T16:57:31.884Z,12.32
2023-04-15T17:00:18.394Z,6.03
2023-04-15T17:02:46.132Z,8.77
2023-04-15T17:05:13.644Z,6.20
2023-04-15T17:07:41.223Z,10.13
2023-04-15T17:10:08.908Z,6.88
2023-04-15T17:12:36.303Z,9.13
2023-04-15T17:15:03.975Z,6.68
2023-04-15T17:17:31.671Z,8.88
2023-04-15T17:19:59.234Z,7.78
2023-04-15T17:22:27.410Z,9.30
2023-04-15T17:24:55.612Z,10.70
2023-04-15T17:27:24.677Z,6.63
2023-04-15T17:29:52.475Z,14.23
2023-04-15T17:32:40.314Z,7.40
2023-04-15T17:35:27.702Z,11.30
2023-04-15T17:38:14.953Z,14.00
2023-04-15T17:41:02.504Z,16.98
2023-04-15T17:43:50.299Z,10.32
2023-04-15T17:46:37.902Z,10.85
2023-04-15T17:49:25.967Z,9.32
2023-04-15T17:52:14.330Z,14.82
2023-04-15T17:55:02.609Z,12.02
2023-04-15T17:57:50.400Z,12.48
2023-04-15T18:00:38.028Z,13.63
2023-04-15T18:03:27.329Z,13.85
2023-04-15T18:06:16.502Z,14.57
2023-04-15T18:09:04.258Z,15.93
2023-04-15T18:11:51.711Z,13.13
2023-04-15T18:14:39.004Z,17.45
2023-04-15T18:17:27.382Z,17.13
2023-04-15T18:20:14.983Z,16.63
2023-04-15T18:22:45.008Z,14.20
2023-04-15T18:25:12.566Z,14.43
2023-04-15T18:27:40.375Z,11.93
2023-04-15T18:30:10.325Z,14.55
2023-04-15T18:32:38.589Z,13.80
2023-04-15T18:35:06.672Z,14.75
2023-04-15T18:37:34.220Z,13.90
2023-04-15T18:40:01.922Z,15.68
2023-04-15T18:42:29.407Z,16.35
2023-04-15T18:44:56.910Z,13.02
2023-04-15T18:47:27.041Z,17.63
2023-04-15T18:49:54.782Z,15.80
2023-04-15T18:52:22.315Z,14.15
2023-04-15T18:54:49.822Z,21.15
2023-04-15T18:57:23.664Z,18.52
2023-04-15T18:59:59.685Z,19.58
2023-04-15T19:02:27.156Z,20.15
2023-04-15T19:04:54.684Z,24.02
2023-04-15T19:07:23.220Z,19.73
2023-04-15T19:09:50.597Z,21.58
2023-04-15T19:12:18.090Z,20.00
2023-04-15T19:14:45.558Z,18.10
2023-04-15T19:17:12.935Z,19.65
2023-04-15T19:19:40.462Z,24.77
2023-04-15T19:22:08.971Z,26.42
2023-04-15T19:24:36.630Z,31.23
2023-04-15T19:27:04.134Z,45.58
2023-04-15T19:29:31.487Z,71.00
2023-04-15T19:31:58.860Z,49.85
2023-04-15T19:34:26.341Z,26.42
2023-04-15T19:36:53.804Z,46.17
2023-04-15T19:39:21.292Z,71.55
2023-04-15T19:41:49.782Z,60.10
2023-04-15T19:44:17.329Z,53.78
2023-04-15T19:46:46.031Z,56.53
2023-04-15T19:49:13.512Z,66.80
2023-04-15T19:51:41.507Z,49.40
2023-04-15T19:54:09.074Z,37.00
2023-04-15T19:56:36.490Z,34.75
2023-04-15T19:59:04.377Z,37.15
2023-04-15T20:01:32.289Z,30.55
2023-04-15T20:04:00.205Z,26.55
2023-04-15T20:06:28.465Z,35.95
2023-04-15T20:08:56.052Z,51.42
2023-04-15T20:12:10.066Z,43.42
2023-04-15T20:14:17.790Z,35.42
2023-04-15T20:16:45.598Z,36.80
2023-04-15T20:19:13.873Z,33.22
2023-04-15T20:21:41.868Z,36.72
2023-04-15T20:24:09.471Z,28.58
2023-04-15T20:26:36.947Z,32.85
2023-04-15T20:29:05.148Z,30.27
2023-04-15T20:31:34.007Z,30.75
2023-04-15T20:34:01.634Z,27.38
2023-04-15T20:36:29.110Z,30.60
2023-04-15T20:38:56.537Z,31.27
2023-04-15T20:41:23.921Z,30.88
2023-04-15T20:43:51.434Z,25.55
2023-04-15T20:46:21.356Z,31.55
2023-04-15T20:48:49.398Z,37.95
2023-04-15T20:51:16.969Z,36.38
2023-04-15T20:53:44.485Z,32.15
2023-04-15T20:56:11.949Z,37.53
2023-04-15T20:58:39.429Z,31.27
2023-04-15T21:01:07.020Z,35.65
2023-04-15T21:03:34.847Z,41.00
2023-04-15T21:06:02.375Z,38.47
2023-04-15T21:08:30.612Z,44.05
2023-04-15T21:10:58.045Z,37.08
2023-04-15T21:13:25.603Z,32.38
2023-04-15T21:15:55.822Z,31.75
2023-04-15T21:18:23.733Z,29.42
2023-04-15T21:21:01.263Z,29.45
2023-04-15T21:23:35.811Z,94.22
2023-04-15T21:26:03.302Z,66.75
2023-04-15T21:28:30.891Z,38.30
2023-04-15T21:30:59.231Z,32.10
2023-04-15T21:33:27.224Z,21.15
2023-04-15T21:35:54.821Z,21.65
2023-04-15T21:38:23.540Z,19.85
2023-04-15T21:40:51.233Z,112.55
2023-04-15T21:43:18.818Z,56.90
2023-04-15T21:46:20.908Z,31.83
2023-04-15T21:48:34.036Z,40.25
2023-04-15T21:51:01.909Z,41.45
2023-04-15T21:53:29.375Z,44.78
2023-04-15T21:55:56.951Z,35.78
2023-04-15T21:58:24.453Z,44.58
2023-04-15T22:00:52.730Z,41.17
2023-04-15T22:03:20.323Z,21.52
2023-04-15T22:05:47.872Z,15.52
2023-04-15T22:08:15.464Z,19.30
2023-04-15T22:10:43.007Z,24.52
2023-04-15T22:13:11.162Z,18.27
2023-04-15T22:15:38.990Z,24.17
2023-04-15T22:18:06.503Z,22.52
2023-04-15T22:20:34.095Z,21.33
2023-04-15T22:23:03.848Z,22.38
2023-04-15T22:25:31.612Z,20.48
2023-04-15T22:27:59.051Z,21.73
2023-04-15T22:30:26.452Z,19.25
2023-04-15T22:32:53.869Z,25.35
2023-04-15T22:35:21.317Z,18.25
2023-04-15T22:37:48.924Z,20.58
2023-04-15T22:40:16.492Z,18.85
2023-04-15T22:42:44.954Z,18.00
2023-04-15T22:45:12.424Z,23.83
2023-04-15T22:47:39.897Z,16.10
2023-04-15T22:50:07.864Z,20.02
2023-04-15T22:52:35.910Z,26.52
2023-04-15T22:55:04.766Z,18.15
2023-04-15T22:57:32.250Z,22.70
2023-04-15T22:59:59.639Z,24.38
2023-04-15T23:02:27.379Z,20.27
2023-04-15T23:04:55.795Z,13.93
2023-04-15T23:07:23.359Z,17.48
2023-04-15T23:09:51.947Z,19.30
2023-04-15T23:12:19.413Z,17.35
2023-04-15T23:14:47.111Z,19.73
2023-04-15T23:17:14.537Z,20.13
2023-04-15T23:19:42.149Z,16.33
2023-04-15T23:22:12.039Z,13.68
2023-04-15T23:24:39.662Z,19.98
2023-04-15T23:27:07.130Z,20.98
2023-04-15T23:29:34.684Z,17.75
2023-04-15T23:32:02.282Z,15.68
2023-04-15T23:34:30.121Z,17.75
2023-04-15T23:36:57.794Z,16.55
2023-04-15T23:39:25.775Z,18.70
2023-04-15T23:41:53.862Z,15.98
2023-04-15T23:44:21.414Z,17.83
2023-04-15T23:46:49.037Z,18.27
2023-04-15T23:49:20.122Z,19.52
2023-04-15T23:51:47.983Z,19.88
2023-04-15T23:54:15.739Z,20.55
2023-04-15T23:56:43.372Z,14.20
2023-04-15T23:59:11.204Z,16.50
